Time;durP1;ratioP1;P1;durP2;ratioP2;P2;SDS_P1;SDS_P2;PMS_P1;PMS_P2;Temp;Humidity;BMP_temperature;BMP_pressure;BME280_temperature;BME280_humidity;BME280_pressure;Samples;Min_cycle;Max_cycle;Signal;HPM_P1;HPM_P2
2023/06/19 00:00:18;;;;;;;21.52;10.32;;;;;;;20.31;100.00;97760.13;5159149;27;20047;-55
2023/06/19 00:02:44;;;;;;;20.40;9.55;;;;;;;20.30;100.00;97763.38;5158825;27;20050;-51
2023/06/19 00:05:10;;;;;;;13.57;9.38;;;;;;;20.29;100.00;97770.16;5158957;27;20137;-58
2023/06/19 00:07:37;;;;;;;11.80;9.40;;;;;;;20.24;100.00;97763.22;5158760;27;20046;-54
2023/06/19 00:10:03;;;;;;;17.08;8.88;;;;;;;20.21;100.00;97769.72;5158613;27;20050;-54
2023/06/19 00:12:29;;;;;;;12.00;9.25;;;;;;;20.09;100.00;97771.44;5158660;27;20046;-54
2023/06/19 00:14:56;;;;;;;14.45;9.45;;;;;;;20.12;100.00;97776.03;5158993;27;20054;-53
2023/06/19 00:17:25;;;;;;;13.63;9.38;;;;;;;20.02;100.00;97779.28;5158521;27;20042;-52
2023/06/19 00:19:51;;;;;;;13.05;9.70;;;;;;;19.88;100.00;97780.66;5158933;27;20065;-58
2023/06/19 00:22:17;;;;;;;12.80;9.75;;;;;;;20.02;100.00;97782.84;5158340;27;20406;-57
2023/06/19 00:24:43;;;;;;;15.32;10.68;;;;;;;20.03;100.00;97787.19;5158605;27;20057;-58
2023/06/19 00:27:09;;;;;;;11.80;9.38;;;;;;;20.03;100.00;97778.06;5158651;27;20412;-58
2023/06/19 00:29:35;;;;;;;11.48;9.55;;;;;;;19.97;100.00;97783.47;5158513;27;20050;-58
2023/06/19 00:32:01;;;;;;;14.98;9.75;;;;;;;19.93;100.00;97782.84;5158670;27;20051;-55
2023/06/19 00:34:29;;;;;;;10.68;9.02;;;;;;;19.98;100.00;97790.56;5158409;27;20099;-57
2023/06/19 00:36:56;;;;;;;13.45;10.18;;;;;;;19.93;100.00;97805.09;5158541;27;20137;-52
2023/06/19 00:39:22;;;;;;;14.48;9.27;;;;;;;19.97;100.00;97802.94;5158190;27;20051;-51
2023/06/19 00:41:48;;;;;;;13.18;9.75;;;;;;;19.93;100.00;97802.31;5158780;27;20051;-52
2023/06/19 00:44:14;;;;;;;18.38;9.88;;;;;;;19.79;100.00;97802.88;5158081;27;20146;-58
2023/06/19 00:46:41;;;;;;;12.82;9.93;;;;;;;19.71;100.00;97833.00;5158544;27;20464;-53
2023/06/19 00:49:08;;;;;;;14.35;9.88;;;;;;;19.69;100.00;97816.78;5158053;27;20103;-53
2023/06/19 00:51:34;;;;;;;17.45;9.85;;;;;;;19.64;100.00;97834.06;5158231;27;20133;-57
2023/06/19 00:54:00;;;;;;;17.75;9.68;;;;;;;19.62;100.00;97833.69;5158316;27;20376;-57
2023/06/19 00:56:26;;;;;;;11.63;10.18;;;;;;;19.52;100.00;97838.44;5157903;27;20053;-59
2023/06/19 00:58:53;;;;;;;13.02;10.27;;;;;;;19.41;100.00;97846.44;5158055;27;20070;-52
2023/06/19 01:01:20;;;;;;;13.85;9.95;;;;;;;19.42;100.00;97856.31;5157995;27;20057;-57
2023/06/19 01:03:47;;;;;;;17.15;10.68;;;;;;;19.22;100.00;97890.03;5158421;27;20141;-52
2023/06/19 01:06:15;;;;;;;18.55;10.05;;;;;;;19.35;100.00;97914.19;5158198;27;20495;-57
2023/06/19 01:08:55;;;;;;;14.77;10.30;;;;;;;19.44;100.00;97898.34;5159383;27;20129;-55
2023/06/19 01:11:24;;;;;;;15.27;10.25;;;;;;;19.48;100.00;97865.63;5161602;27;20046;-55
2023/06/19 01:13:57;;;;;;;14.80;10.63;;;;;;;19.48;100.00;97864.84;5161927;27;20062;-54
2023/06/19 01:16:24;;;;;;;16.63;10.38;;;;;;;19.36;100.00;97872.06;5161713;27;20047;-54
2023/06/19 01:18:50;;;;;;;15.02;10.55;;;;;;;19.34;100.00;97877.28;5161663;27;20161;-51
2023/06/19 01:21:18;;;;;;;14.63;10.40;;;;;;;19.18;100.00;97899.72;5161464;27;20418;-57
2023/06/19 01:23:45;;;;;;;13.57;10.43;;;;;;;19.18;100.00;97977.50;5161398;27;20065;-56
2023/06/19 01:26:12;;;;;;;14.23;9.82;;;;;;;19.31;100.00;97939.31;5161645;27;20047;-55
2023/06/19 01:28:40;;;;;;;17.13;10.88;;;;;;;19.37;100.00;97895.81;5161242;27;20067;-57
2023/06/19 01:31:21;;;;;;;11.93;10.35;;;;;;;19.28;100.00;97879.88;5161648;27;20083;-58
2023/06/19 01:33:50;;;;;;;17.08;10.70;;;;;;;19.31;100.00;97889.31;5161393;27;20054;-55
2023/06/19 01:36:17;;;;;;;15.32;10.73;;;;;;;19.36;100.00;97882.38;5161553;27;20046;-58
2023/06/19 01:38:46;;;;;;;18.90;11.40;;;;;;;19.40;100.00;97871.91;5161276;27;20050;-58
2023/06/19 01:41:13;;;;;;;13.30;10.50;;;;;;;19.39;100.00;97901.72;5161294;27;20145;-59
2023/06/19 01:43:40;;;;;;;14.73;11.48;;;;;;;19.46;100.00;97858.97;5161197;27;20061;-56
2023/06/19 01:46:06;;;;;;;17.33;13.65;;;;;;;19.39;100.00;97860.03;5161160;27;20114;-58
2023/06/19 01:48:32;;;;;;;14.68;10.77;;;;;;;19.39;100.00;97856.47;5161143;27;20138;-51
2023/06/19 01:50:58;;;;;;;16.13;10.77;;;;;;;19.53;100.00;97844.81;5161073;27;20138;-57
2023/06/19 01:53:24;;;;;;;20.38;11.30;;;;;;;19.58;100.00;97835.84;5161116;27;20157;-58
2023/06/19 01:55:50;;;;;;;16.40;10.80;;;;;;;19.46;100.00;97831.97;5160861;27;20043;-59
2023/06/19 01:58:16;;;;;;;18.58;11.40;;;;;;;19.38;100.00;97852.13;5161174;27;20415;-58
2023/06/19 02:00:43;;;;;;;18.30;10.80;;;;;;;19.55;100.00;97844.34;5160775;27;20066;-54
2023/06/19 02:03:09;;;;;;;14.98;10.98;;;;;;;19.59;100.00;97833.84;5161191;27;20421;-54
2023/06/19 02:05:39;;;;;;;15.85;11.18;;;;;;;19.56;100.00;97832.78;5160626;27;20133;-54
2023/06/19 02:08:05;;;;;;;12.80;11.00;;;;;;;19.49;100.00;97838.59;5160885;27;20145;-57
2023/06/19 02:10:31;;;;;;;17.45;10.48;;;;;;;19.59;100.00;97831.84;5160787;27;20058;-51
2023/06/19 02:12:57;;;;;;;14.07;11.45;;;;;;;19.50;100.00;97827.03;5160714;27;20050;-55
2023/06/19 02:15:23;;;;;;;17.42;11.23;;;;;;;19.65;100.00;97815.38;5160596;27;20395;-52
2023/06/19 02:17:54;;;;;;;18.95;11.48;;;;;;;19.76;100.00;97818.50;5160590;27;20150;-53
2023/06/19 02:20:21;;;;;;;15.52;13.90;;;;;;;19.78;100.00;97820.81;5160360;27;20250;-57
2023/06/19 02:22:47;;;;;;;17.10;11.35;;;;;;;19.84;100.00;97816.97;5160203;27;20421;-55
2023/06/19 02:25:12;;;;;;;16.88;12.13;;;;;;;19.97;100.00;97814.81;5160746;27;20057;-57
2023/06/19 02:27:38;;;;;;;16.40;11.10;;;;;;;19.96;100.00;97823.66;5160269;27;20055;-58
2023/06/19 02:30:06;;;;;;;12.13;10.57;;;;;;;20.00;100.00;97821.47;5160786;27;20145;-58
2023/06/19 02:32:32;;;;;;;20.17;11.63;;;;;;;20.06;100.00;97814.09;5160249;27;20055;-56
2023/06/19 02:34:58;;;;;;;15.35;11.13;;;;;;;19.94;100.00;97818.53;5160103;27;20572;-58
2023/06/19 02:37:24;;;;;;;16.60;11.80;;;;;;;19.98;100.00;97823.94;5160367;27;20067;-54
2023/06/19 02:39:50;;;;;;;17.00;12.65;;;;;;;20.01;100.00;97820.25;5160310;27;20062;-53
2023/06/19 02:42:16;;;;;;;14.70;11.85;;;;;;;20.06;100.00;97833.56;5160339;27;20047;-52
2023/06/19 02:44:43;;;;;;;18.27;12.30;;;;;;;20.03;100.00;97823.34;5160171;27;20050;-55
2023/06/19 02:47:09;;;;;;;15.82;11.95;;;;;;;20.08;100.00;97825.50;5160379;27;20043;-51
2023/06/19 02:49:35;;;;;;;17.38;11.65;;;;;;;20.08;100.00;97844.22;5160186;27;20046;-52
2023/06/19 02:52:01;;;;;;;18.58;11.30;;;;;;;20.05;100.00;97837.53;5160345;27;20085;-55
2023/06/19 02:54:27;;;;;;;16.90;12.43;;;;;;;20.11;100.00;97832.16;5160018;27;20137;-57
2023/06/19 02:56:53;;;;;;;20.52;11.75;;;;;;;20.18;100.00;97843.75;5160175;27;20426;-57
2023/06/19 02:59:19;;;;;;;15.80;11.75;;;;;;;20.23;100.00;97853.53;5159844;27;20047;-58
2023/06/19 03:01:45;;;;;;;19.05;12.13;;;;;;;20.30;100.00;97849.66;5160218;27;20072;-57
2023/06/19 03:04:12;;;;;;;15.45;11.85;;;;;;;20.28;100.00;97852.88;5159580;27;20379;-57
2023/06/19 03:06:39;;;;;;;16.55;11.80;;;;;;;20.31;100.00;97865.88;5159747;27;20089;-57
2023/06/19 03:09:05;;;;;;;15.43;11.90;;;;;;;20.34;100.00;97851.03;5159941;27;20115;-53
2023/06/19 03:11:31;;;;;;;14.60;11.77;;;;;;;20.40;100.00;97854.00;5159791;27;20047;-58
2023/06/19 03:13:57;;;;;;;22.52;13.05;;;;;;;20.30;100.00;97852.44;5159891;27;20089;-58
2023/06/19 03:16:23;;;;;;;16.77;11.57;;;;;;;20.33;100.00;97857.84;5159665;27;20591;-58
2023/06/19 03:18:49;;;;;;;15.52;12.43;;;;;;;20.42;100.00;97860.63;5159538;27;20070;-58
2023/06/19 03:21:19;;;;;;;17.02;11.98;;;;;;;20.50;100.00;97883.38;5159530;27;20523;-56
2023/06/19 03:23:45;;;;;;;24.65;11.85;;;;;;;20.71;100.00;97900.44;5159728;27;20061;-57
2023/06/19 03:26:11;;;;;;;18.30;11.85;;;;;;;20.79;100.00;97893.31;5159437;27;20070;-55
2023/06/19 03:28:36;;;;;;;20.20;12.35;;;;;;;20.74;100.00;97908.63;5159255;27;20089;-53
2023/06/19 03:31:02;;;;;;;17.75;13.02;;;;;;;20.91;100.00;97909.09;5158714;27;20055;-51
2023/06/19 03:33:28;;;;;;;25.65;13.27;;;;;;;21.07;100.00;97913.56;5159455;27;20086;-55
2023/06/19 03:35:55;;;;;;;19.30;12.07;;;;;;;21.08;100.00;97907.53;5159442;27;20064;-57
2023/06/19 03:38:22;;;;;;;17.73;12.63;;;;;;;21.22;100.00;97927.63;5159384;27;20114;-58
2023/06/19 03:40:48;;;;;;;19.02;13.07;;;;;;;21.18;100.00;97932.59;5159455;27;20141;-59
2023/06/19 03:43:14;;;;;;;21.35;13.05;;;;;;;21.23;100.00;97977.34;5159206;27;20066;-57
2023/06/19 03:45:40;;;;;;;17.25;13.60;;;;;;;21.43;100.00;98017.94;5159379;27;20223;-57
2023/06/19 03:48:06;;;;;;;17.42;12.80;;;;;;;21.39;100.00;98032.00;5159171;27;20066;-55
2023/06/19 03:50:32;;;;;;;17.15;12.85;;;;;;;21.77;100.00;98086.53;5159392;27;20065;-52
2023/06/19 03:52:58;;;;;;;17.40;13.65;;;;;;;22.49;100.00;98139.88;5159025;27;20065;-51
2023/06/19 03:55:25;;;;;;;17.77;13.38;;;;;;;22.99;100.00;98254.91;5159487;27;20384;-53
2023/06/19 03:57:51;;;;;;;18.45;12.73;;;;;;;23.64;100.00;98311.34;5158830;27;20152;-55
2023/06/19 04:00:18;;;;;;;15.88;12.88;;;;;;;23.91;100.00;98349.63;5159321;27;20046;-55
2023/06/19 04:02:46;;;;;;;17.83;13.25;;;;;;;24.46;100.00;98413.72;5158569;27;20057;-53
2023/06/19 04:05:12;;;;;;;20.20;11.48;;;;;;;24.91;100.00;98467.09;5158885;27;20073;-57
2023/06/19 04:07:38;;;;;;;14.23;12.32;;;;;;;25.07;100.00;98463.88;5158971;27;20114;-55
2023/06/19 04:10:04;;;;;;;17.35;12.57;;;;;;;25.03;100.00;98474.50;5158860;27;20369;-53
2023/06/19 04:12:31;;;;;;;14.73;11.68;;;;;;;24.53;100.00;98449.03;5158967;27;20047;-53
2023/06/19 04:14:57;;;;;;;17.38;15.43;;;;;;;24.52;100.00;98451.03;5158576;27;20049;-52
2023/06/19 04:17:23;;;;;;;15.80;14.27;;;;;;;24.88;100.00;98486.44;5158864;27;20055;-52
2023/06/19 04:19:49;;;;;;;16.27;14.70;;;;;;;25.49;100.00;98491.72;5158567;27;20134;-54
2023/06/19 04:22:15;;;;;;;17.30;15.57;;;;;;;25.25;100.00;98500.19;5158783;27;20153;-53
2023/06/19 04:24:41;;;;;;;17.25;12.25;;;;;;;25.34;100.00;98483.28;5158275;27;20064;-55
2023/06/19 04:27:08;;;;;;;17.33;15.35;;;;;;;25.00;100.00;98467.81;5158715;27;20061;-57
2023/06/19 04:29:35;;;;;;;16.98;15.30;;;;;;;24.99;100.00;98454.25;5158267;27;20047;-53
2023/06/19 04:32:10;;;;;;;19.05;12.27;;;;;;;24.37;100.00;98431.34;5158436;27;20046;-52
2023/06/19 04:34:36;;;;;;;16.52;12.45;;;;;;;24.09;100.00;98408.34;5158488;27;20077;-58
2023/06/19 04:37:02;;;;;;;21.77;12.85;;;;;;;24.31;100.00;98410.06;5158303;27;20564;-59
2023/06/19 04:39:28;;;;;;;17.33;15.52;;;;;;;24.39;100.00;98417.63;5158481;27;20046;-55
2023/06/19 04:41:54;;;;;;;16.65;14.93;;;;;;;24.53;100.00;98435.78;5158152;27;20043;-55
2023/06/19 04:44:20;;;;;;;18.33;15.45;;;;;;;24.56;100.00;98436.84;5158205;27;20122;-56
2023/06/19 04:46:46;;;;;;;21.08;11.98;;;;;;;24.65;100.00;98431.16;5157650;27;20078;-56
2023/06/19 04:49:13;;;;;;;22.38;14.30;;;;;;;25.38;100.00;98466.25;5158383;27;20062;-52
2023/06/19 04:51:39;;;;;;;16.77;15.18;;;;;;;25.67;100.00;98509.63;5157932;27;20047;-59
2023/06/19 04:54:04;;;;;;;16.73;14.18;;;;;;;26.27;100.00;98517.53;5158219;27;20050;-55
2023/06/19 04:56:30;;;;;;;20.45;14.77;;;;;;;26.37;100.00;98537.84;5157747;27;20046;-53
2023/06/19 04:58:59;;;;;;;13.73;11.70;;;;;;;26.21;100.00;98541.16;5158185;27;20376;-54
2023/06/19 05:01:28;;;;;;;20.48;11.52;;;;;;;26.18;100.00;98542.16;5157668;27;20058;-56
2023/06/19 05:03:55;;;;;;;19.35;14.02;;;;;;;26.08;100.00;98549.13;5157755;27;20316;-59
2023/06/19 05:06:21;;;;;;;14.57;13.07;;;;;;;26.04;100.00;98535.28;5157965;27;20288;-57
2023/06/19 05:08:47;;;;;;;18.35;13.45;;;;;;;26.16;100.00;98534.22;5157645;27;20047;-54
2023/06/19 05:11:13;;;;;;;15.35;13.48;;;;;;;25.90;100.00;98533.28;5157835;27;20150;-56
2023/06/19 05:13:39;;;;;;;16.58;13.07;;;;;;;25.89;100.00;98540.13;5157752;27;20046;-59
2023/06/19 05:16:05;;;;;;;16.27;13.60;;;;;;;25.79;100.00;98503.72;5157714;27;20047;-60
2023/06/19 05:18:31;;;;;;;18.45;13.77;;;;;;;25.85;100.00;98494.63;5157752;27;20048;-59
2023/06/19 05:20:57;;;;;;;14.88;13.38;;;;;;;25.97;100.00;98499.94;5157878;27;20198;-58
2023/06/19 05:23:23;;;;;;;16.17;13.48;;;;;;;25.99;100.00;98508.66;5157390;27;20061;-58
2023/06/19 05:25:49;;;;;;;15.70;14.05;;;;;;;26.00;100.00;98517.88;5157763;27;20074;-54
2023/06/19 05:28:15;;;;;;;17.88;14.52;;;;;;;25.86;100.00;98525.03;5157157;27;20152;-55
2023/06/19 05:30:41;;;;;;;15.10;13.48;;;;;;;26.11;100.00;98539.72;5157463;27;20050;-53
2023/06/19 05:33:07;;;;;;;19.92;14.45;;;;;;;26.51;100.00;98556.72;5157532;27;20053;-54
2023/06/19 05:35:33;;;;;;;17.75;14.60;;;;;;;26.59;100.00;98556.31;5157301;27;20141;-55
2023/06/19 05:37:59;;;;;;;19.75;15.07;;;;;;;26.52;100.00;98560.31;5157421;27;20072;-59
2023/06/19 05:40:26;;;;;;;27.42;15.45;;;;;;;26.46;100.00;98567.88;5157017;27;20107;-52
2023/06/19 05:42:52;;;;;;;19.75;15.48;;;;;;;26.30;100.00;98566.34;5157591;27;20054;-53
2023/06/19 05:45:18;;;;;;;20.35;15.48;;;;;;;26.11;100.00;98551.75;5157088;27;20107;-53
2023/06/19 05:47:43;;;;;;;18.27;14.95;;;;;;;26.11;100.00;98553.78;5156812;27;20050;-56
2023/06/19 05:50:10;;;;;;;23.65;16.75;;;;;;;26.14;100.00;98550.78;5157084;27;20399;-57
2023/06/19 05:52:36;;;;;;;20.73;16.48;;;;;;;26.17;100.00;98558.22;5157339;27;20320;-58
2023/06/19 05:55:02;;;;;;;24.33;16.60;;;;;;;26.36;100.00;98564.41;5158545;27;20085;-56
2023/06/19 05:57:28;;;;;;;20.75;15.85;;;;;;;26.46;100.00;98570.69;5160181;27;20420;-52
2023/06/19 05:59:54;;;;;;;20.00;15.82;;;;;;;26.65;100.00;98580.44;5160849;27;20082;-52
2023/06/19 06:02:20;;;;;;;20.00;15.45;;;;;;;26.82;100.00;98586.31;5160676;27;20076;-59
2023/06/19 06:04:46;;;;;;;21.35;15.77;;;;;;;26.93;100.00;98589.28;5160152;27;20051;-55
2023/06/19 06:07:13;;;;;;;28.25;17.02;;;;;;;27.08;100.00;98592.03;5160647;27;20430;-55
2023/06/19 06:09:39;;;;;;;26.08;17.08;;;;;;;27.16;100.00;98587.56;5160483;27;20141;-54
2023/06/19 06:12:07;;;;;;;22.90;17.77;;;;;;;27.87;100.00;98607.84;5160187;27;20073;-55
2023/06/19 06:14:33;;;;;;;29.67;17.25;;;;;;;28.57;98.85;98639.75;5160600;27;20119;-54
2023/06/19 06:16:59;;;;;;;24.52;16.15;;;;;;;29.40;89.80;98654.91;5160028;27;20046;-53
2023/06/19 06:19:25;;;;;;;23.00;16.60;;;;;;;30.04;80.72;98667.47;5160586;27;20066;-55
2023/06/19 06:21:51;;;;;;;20.40;16.02;;;;;;;29.40;81.31;98666.22;5159947;27;20432;-56
2023/06/19 06:24:17;;;;;;;24.13;16.23;;;;;;;30.51;80.53;98676.28;5160476;27;20057;-53
2023/06/19 06:26:43;;;;;;;24.20;15.75;;;;;;;31.48;75.38;98683.41;5159759;27;20133;-58
2023/06/19 06:29:10;;;;;;;21.95;16.30;;;;;;;31.76;73.10;98689.72;5160192;27;20051;-58
2023/06/19 06:31:38;;;;;;;19.48;15.13;;;;;;;32.12;73.58;98684.13;5160164;27;20054;-57
2023/06/19 06:34:04;;;;;;;15.65;13.35;;;;;;;32.41;71.41;98681.88;5159826;27;20446;-53
2023/06/19 06:36:30;;;;;;;18.30;13.43;;;;;;;32.62;67.90;98690.78;5159879;27;20418;-56
2023/06/19 06:38:56;;;;;;;13.55;12.23;;;;;;;32.57;67.17;98683.84;5160061;27;20046;-56
2023/06/19 06:41:22;;;;;;;16.50;12.18;;;;;;;32.94;67.30;98685.34;5159881;27;20134;-54
2023/06/19 06:43:48;;;;;;;13.13;11.65;;;;;;;33.11;65.76;98685.97;5159752;27;20434;-52
2023/06/19 06:46:14;;;;;;;18.38;11.90;;;;;;;33.54;64.63;98696.63;5160027;27;20054;-52
2023/06/19 06:48:40;;;;;;;17.13;12.30;;;;;;;33.69;64.78;98694.13;5159944;27;20052;-51
2023/06/19 06:51:06;;;;;;;24.35;12.32;;;;;;;33.75;65.28;98694.03;5160043;27;20408;-55
2023/06/19 06:53:32;;;;;;;17.55;13.38;;;;;;;34.06;63.99;98703.22;5159363;27;20054;-52
2023/06/19 06:55:59;;;;;;;21.42;12.80;;;;;;;34.00;63.76;98705.34;5159846;27;20058;-55
2023/06/19 06:58:25;;;;;;;15.23;12.52;;;;;;;33.47;63.34;98697.19;5159689;27;20054;-58
2023/06/19 07:00:51;;;;;;;18.90;12.27;;;;;;;33.70;64.38;98700.56;5159534;27;20078;-55
2023/06/19 07:03:18;;;;;;;15.90;14.02;;;;;;;33.89;65.12;98701.34;5159562;27;20408;-55
2023/06/19 07:05:44;;;;;;;16.25;12.70;;;;;;;33.65;62.75;98690.03;5158506;27;20416;-55
2023/06/19 07:08:10;;;;;;;20.60;14.52;;;;;;;33.67;64.63;98699.56;5159443;27;20061;-57
2023/06/19 07:13:38;;;;;;;21.67;13.40;;;;;;;34.35;63.93;98696.56;5159270;27;20143;-58
2023/06/19 07:16:04;;;;;;;17.38;13.40;;;;;;;34.70;63.53;98694.00;5159009;27;20474;-57
2023/06/19 07:18:31;;;;;;;17.30;12.68;;;;;;;34.78;63.75;98692.03;5159684;27;20078;-56
2023/06/19 07:20:57;;;;;;;16.10;11.90;;;;;;;34.41;60.39;98696.50;5159509;27;20174;-55
2023/06/19 07:23:23;;;;;;;14.25;12.57;;;;;;;34.32;62.64;98696.88;5158885;27;20111;-57
2023/06/19 07:25:49;;;;;;;18.83;12.55;;;;;;;34.81;62.37;98705.19;5159372;27;20062;-58
2023/06/19 07:28:15;;;;;;;12.73;11.45;;;;;;;34.57;59.87;98703.28;5158680;27;20157;-57
2023/06/19 07:30:41;;;;;;;14.43;11.55;;;;;;;34.62;60.05;98706.03;5159458;27;20129;-57
2023/06/19 07:33:08;;;;;;;14.23;11.40;;;;;;;34.94;61.07;98710.16;5158844;27;20491;-58
2023/06/19 07:35:34;;;;;;;14.18;11.40;;;;;;;35.13;60.60;98702.34;5159044;27;20073;-56
2023/06/19 07:38:00;;;;;;;18.38;11.35;;;;;;;34.95;59.92;98703.91;5158821;27;20046;-55
2023/06/19 07:40:26;;;;;;;21.48;12.45;;;;;;;35.25;59.08;98712.19;5158859;27;20149;-52
2023/06/19 07:42:52;;;;;;;17.67;11.77;;;;;;;35.24;58.82;98707.03;5158669;27;20057;-57
2023/06/19 07:45:18;;;;;;;17.10;11.55;;;;;;;35.94;58.78;98707.47;5159299;27;20082;-57
2023/06/19 07:47:44;;;;;;;17.63;11.80;;;;;;;36.09;58.63;98712.63;5158481;27;20074;-58
2023/06/19 07:50:10;;;;;;;19.95;11.60;;;;;;;36.31;57.83;98719.88;5158306;27;20042;-59
2023/06/19 07:52:36;;;;;;;21.45;11.52;;;;;;;36.16;58.37;98716.88;5158900;27;20051;-57
2023/06/19 07:55:03;;;;;;;17.30;11.10;;;;;;;36.61;56.32;98713.00;5158809;27;20145;-57
2023/06/19 07:57:29;;;;;;;19.38;11.25;;;;;;;36.71;56.67;98726.22;5158646;27;20053;-59
2023/06/19 07:59:55;;;;;;;22.42;11.85;;;;;;;36.28;56.93;98721.00;5158751;27;20046;-55
2023/06/19 08:02:21;;;;;;;14.18;10.60;;;;;;;36.26;54.86;98723.66;5158756;27;20460;-56
2023/06/19 08:04:47;;;;;;;15.82;11.02;;;;;;;35.69;56.79;98711.88;5158581;27;20046;-57
2023/06/19 08:07:13;;;;;;;16.08;11.18;;;;;;;36.63;55.74;98713.22;5159028;27;20047;-60
2023/06/19 08:09:40;;;;;;;17.58;11.20;;;;;;;35.74;55.94;98711.78;5158174;27;20426;-55
2023/06/19 08:12:06;;;;;;;18.02;10.73;;;;;;;36.50;56.60;98714.03;5158402;27;20046;-54
2023/06/19 08:14:32;;;;;;;20.98;10.88;;;;;;;36.59;55.16;98724.19;5157909;27;20050;-59
2023/06/19 08:16:58;;;;;;;17.88;10.52;;;;;;;36.19;55.66;98721.47;5157835;27;20069;-58
2023/06/19 08:19:24;;;;;;;18.33;10.10;;;;;;;36.12;55.56;98722.13;5157960;27;20404;-57
2023/06/19 08:21:50;;;;;;;19.85;10.50;;;;;;;36.48;54.10;98723.13;5158005;27;20054;-57
2023/06/19 08:24:16;;;;;;;16.75;9.85;;;;;;;36.64;53.25;98724.06;5158101;27;20054;-58
2023/06/19 08:26:43;;;;;;;22.98;11.07;;;;;;;36.94;52.72;98717.84;5157916;27;20058;-59
2023/06/19 08:29:09;;;;;;;15.57;10.10;;;;;;;37.37;53.14;98716.47;5158651;27;20058;-57
2023/06/19 08:31:35;;;;;;;22.17;10.27;;;;;;;37.13;53.64;98720.53;5158123;27;20137;-61
2023/06/19 08:34:06;;;;;;;14.65;10.20;;;;;;;36.83;53.60;98712.44;5158370;27;20297;-61
2023/06/19 08:36:33;;;;;;;14.63;10.32;;;;;;;36.51;53.58;98713.47;5157918;27;20065;-57
2023/06/19 08:38:59;;;;;;;15.73;10.80;;;;;;;36.97;54.23;98718.88;5158347;27;20043;-56
2023/06/19 08:41:25;;;;;;;17.15;10.98;;;;;;;36.90;53.74;98720.31;5157741;27;20042;-57
2023/06/19 08:43:51;;;;;;;10.85;9.68;;;;;;;37.34;53.15;98714.00;5158272;27;20202;-56
2023/06/19 08:46:18;;;;;;;19.02;10.57;;;;;;;37.30;52.23;98720.06;5157620;27;20389;-55
2023/06/19 08:48:45;;;;;;;13.77;10.27;;;;;;;37.36;52.19;98714.19;5158037;27;20118;-60
2023/06/19 08:51:12;;;;;;;18.67;9.90;;;;;;;37.56;52.13;98721.22;5157984;27;20373;-55
2023/06/19 08:53:45;;;;;;;17.38;11.25;;;;;;;36.38;53.82;98712.72;5157828;27;20093;-56
2023/06/19 08:56:11;;;;;;;13.85;10.55;;;;;;;35.16;55.01;98709.78;5157807;27;20133;-54
2023/06/19 08:58:38;;;;;;;17.55;10.60;;;;;;;36.22;55.48;98706.09;5157575;27;20380;-58
2023/06/19 09:01:04;;;;;;;17.33;10.43;;;;;;;36.44;55.80;98702.72;5157744;27;20074;-57
2023/06/19 09:03:30;;;;;;;24.52;11.75;;;;;;;36.58;55.26;98697.72;5157465;27;20133;-55
2023/06/19 09:05:56;;;;;;;18.52;10.70;;;;;;;36.61;54.96;98710.91;5157628;27;20462;-56
2023/06/19 09:08:22;;;;;;;15.93;11.05;;;;;;;36.14;55.32;98705.25;5157500;27;20064;-59
2023/06/19 09:10:56;;;;;;;18.70;11.75;;;;;;;35.44;57.62;98702.78;5158128;27;20078;-52
2023/06/19 09:13:22;;;;;;;17.75;11.85;;;;;;;34.30;58.68;98699.53;5157632;27;20158;-51
2023/06/19 09:15:57;;;;;;;12.68;11.05;;;;;;;33.85;61.57;98700.88;5157930;27;20046;-53
2023/06/19 09:18:24;;;;;;;16.30;11.18;;;;;;;33.14;62.33;98706.84;5157626;27;20078;-54
2023/06/19 09:20:54;;;;;;;11.85;10.65;;;;;;;32.38;61.46;98697.13;5157565;27;20057;-56
2023/06/19 09:23:20;;;;;;;19.73;11.60;;;;;;;32.64;63.15;98696.69;5157662;27;20060;-55
2023/06/19 09:25:47;;;;;;;15.35;11.95;;;;;;;32.28;67.02;98691.75;5157336;27;20082;-58
2023/06/19 09:28:20;;;;;;;13.82;11.82;;;;;;;32.13;67.80;98682.84;5157565;27;20058;-60
2023/06/19 09:30:54;;;;;;;12.38;10.95;;;;;;;31.98;70.46;98686.03;5160014;27;20141;-60
2023/06/19 09:33:20;;;;;;;17.02;11.73;;;;;;;31.95;72.87;98672.91;5161292;27;20138;-58
2023/06/19 09:35:48;;;;;;;15.65;11.45;;;;;;;31.69;73.14;98678.94;5160578;27;20057;-55
2023/06/19 09:38:16;;;;;;;11.68;10.48;;;;;;;31.23;72.88;98674.69;5160613;27;20046;-56
2023/06/19 09:40:43;;;;;;;13.27;11.27;;;;;;;31.03;75.05;98677.84;5160998;27;20058;-54
2023/06/19 09:43:10;;;;;;;20.73;10.85;;;;;;;31.03;76.04;98663.69;5160863;27;20118;-56
2023/06/19 09:45:36;;;;;;;12.43;11.00;;;;;;;31.01;78.20;98666.25;5160929;27;20099;-56
2023/06/19 09:48:02;;;;;;;18.33;10.50;;;;;;;30.69;78.36;98664.47;5160592;27;20051;-59
2023/06/19 09:50:29;;;;;;;20.67;11.35;;;;;;;30.16;81.31;98659.78;5161100;27;20134;-56
2023/06/19 09:52:57;;;;;;;19.50;11.50;;;;;;;30.20;83.64;98661.09;5160908;27;20061;-60
2023/06/19 09:55:28;;;;;;;14.70;11.70;;;;;;;30.36;83.97;98667.31;5160321;27;20510;-59
2023/06/19 09:57:55;;;;;;;18.52;11.95;;;;;;;30.11;82.38;98658.47;5160234;27;20050;-60
2023/06/19 10:00:26;;;;;;;17.30;12.05;;;;;;;30.06;87.15;98645.13;5160826;27;20154;-57
2023/06/19 10:02:52;;;;;;;18.20;12.35;;;;;;;29.80;95.77;98639.66;5160133;27;20046;-52
2023/06/19 10:05:30;;;;;;;19.67;11.90;;;;;;;29.60;91.17;98651.16;5160358;27;20141;-57
2023/06/19 10:07:59;;;;;;;12.90;11.55;;;;;;;28.83;91.58;98651.72;5160127;27;20445;-54
2023/06/19 10:10:27;;;;;;;16.67;11.40;;;;;;;28.42;91.51;98661.66;5160138;27;20113;-51
2023/06/19 10:12:55;;;;;;;15.45;12.35;;;;;;;28.25;96.84;98644.56;5160522;27;20065;-55
2023/06/19 10:15:23;;;;;;;17.15;11.95;;;;;;;28.41;96.16;98643.22;5159993;27;20050;-57
2023/06/19 10:17:51;;;;;;;17.58;12.10;;;;;;;28.05;100.00;98625.69;5160407;27;20224;-55
2023/06/19 10:20:31;;;;;;;16.52;11.55;;;;;;;28.07;82.15;98666.19;5159784;27;20054;-54
2023/06/19 10:22:59;;;;;;;12.57;9.80;;;;;;;27.66;73.67;98668.28;5160276;27;20050;-58
2023/06/19 10:25:29;;;;;;;9.77;8.80;;;;;;;27.38;73.15;98673.53;5160104;27;20081;-55
2023/06/19 10:27:55;;;;;;;9.75;8.77;;;;;;;27.41;74.02;98683.81;5159493;27;20068;-54
2023/06/19 10:30:21;;;;;;;10.45;9.35;;;;;;;27.27;75.63;98670.59;5159556;27;20134;-56
2023/06/19 10:32:48;;;;;;;12.52;9.15;;;;;;;27.28;75.41;98677.75;5160175;27;20474;-57
2023/06/19 10:35:15;;;;;;;9.98;9.05;;;;;;;26.88;78.29;98668.72;5159847;27;20145;-57
2023/06/19 10:37:41;;;;;;;13.48;9.48;;;;;;;27.00;79.59;98672.50;5159621;27;20309;-56
2023/06/19 10:40:09;;;;;;;9.75;8.82;;;;;;;26.74;80.12;98681.56;5159355;27;20082;-57
2023/06/19 10:42:35;;;;;;;18.23;9.27;;;;;;;25.98;87.82;98663.59;5159763;27;20054;-57
2023/06/19 10:45:03;;;;;;;11.80;8.38;;;;;;;25.63;89.62;98674.66;5159550;27;20054;-61
2023/06/19 10:47:29;;;;;;;11.85;8.50;;;;;;;25.16;100.00;98654.53;5159356;27;20054;-57
2023/06/19 10:49:55;;;;;;;10.52;9.05;;;;;;;25.02;100.00;98644.75;5159424;27;20046;-54
2023/06/19 10:52:21;;;;;;;13.55;9.40;;;;;;;24.95;100.00;98616.28;5159442;27;20047;-51
2023/06/19 10:54:54;;;;;;;15.02;9.63;;;;;;;24.63;100.00;98517.75;5159481;27;20117;-53
2023/06/19 10:57:27;;;;;;;12.53;8.10;;;;;;;23.19;100.00;98223.63;5159653;27;20092;-54
2023/06/19 10:59:53;;;;;;;14.50;9.60;;;;;;;22.58;100.00;97958.31;5159552;27;20050;-58
2023/06/19 11:02:18;;;;;;;18.92;10.63;;;;;;;22.59;100.00;97841.75;5159315;27;20299;-54
2023/06/19 11:04:45;;;;;;;17.20;9.95;;;;;;;22.08;100.00;97849.84;5159676;27;20051;-53
2023/06/19 11:07:11;;;;;;;16.17;11.10;;;;;;;22.34;100.00;97912.84;5159071;27;20286;-58
2023/06/19 11:09:37;;;;;;;14.43;9.15;;;;;;;22.51;100.00;97920.34;5159686;27;20411;-54
2023/06/19 11:12:03;;;;;;;12.45;9.45;;;;;;;22.48;100.00;97900.97;5159212;27;20057;-54
2023/06/19 11:14:30;;;;;;;17.75;12.98;;;;;;;22.43;100.00;97818.63;5159777;27;20061;-58